Погода Чикилистланна 2 недели

Халиско, Мексика

03 - 16 марта
  • 03марта
    Сегодня
    +10°
    +28°
    Ясно и безоблачно
    ВремяПогодаТемператураВлажностьДавлениеВетер, м/сВероятность осадков
    00:00Небольшая облачность+13°C85 %632 мм0.9 м/с2 %
    03:00Ясно и безоблачно+12°C85 %630 мм0.9 м/с2 %
    06:00Ясно и безоблачно+11°C77 %630 мм0.8 м/с2 %
    09:00Ясно и безоблачно+16°C44 %633 мм0.6 м/с2 %
    12:00Ясно и безоблачно+24°C21 %635 мм2.9 м/с2 %
    15:00Ясно и безоблачно+27°C18 %633 мм4.4 м/с2 %
    18:00Ясно и безоблачно+24°C26 %632 мм4.4 м/с2 %
    21:00Ясно и безоблачно+15°C59 %631 мм1.7 м/с2 %
  • 04марта
    Понедельник
    +12°
    +28°
    Ясно и безоблачно
    ВремяПогодаТемператураВлажностьДавлениеВетер, м/сВероятность осадков
    00:00Ясно и безоблачно+13°C68 %631 мм1.0 м/с2 %
    03:00Ясно и безоблачно+12°C62 %629 мм0.7 м/с2 %
    06:00Ясно и безоблачно+11°C57 %628 мм0.5 м/с2 %
    09:00Ясно и безоблачно+16°C38 %631 мм0.5 м/с2 %
    12:00Ясно и безоблачно+24°C18 %633 мм2.5 м/с2 %
    15:00Ясно и безоблачно+27°C17 %632 мм4.3 м/с2 %
    18:00Ясно и безоблачно+24°C23 %631 мм4.1 м/с2 %
    21:00Ясно и безоблачно+15°C54 %630 мм1.5 м/с2 %
  • 05марта
    Вторник
    +12°
    +28°
    Небольшая облачность
    ВремяПогодаТемператураВлажностьДавлениеВетер, м/сВероятность осадков
    00:00Ясно и безоблачно+13°C61 %630 мм0.7 м/с2 %
    03:00Небольшая облачность+13°C57 %629 мм0.4 м/с2 %
    06:00Практически безоблачно+13°C49 %629 мм0.6 м/с2 %
    09:00Облачно с прояснениями+16°C42 %631 мм0.9 м/с2 %
    12:00Ясно и безоблачно+24°C25 %633 мм1.4 м/с2 %
    15:00Небольшая облачность+28°C15 %632 мм2.8 м/с2 %
    18:00Ясно и безоблачно+25°C24 %631 мм2.1 м/с2 %
    21:00Небольшая облачность+16°C47 %629 мм0.6 м/с2 %
  • 06марта
    Среда
    +10°
    +29°
    Практически безоблачно
    ВремяПогодаТемператураВлажностьДавлениеВетер, м/сВероятность осадков
    00:00Облачно с прояснениями+14°C51 %629 мм0.6 м/с2 %
    03:00Ясно и безоблачно+13°C57 %628 мм0.4 м/с2 %
    06:00Ясно и безоблачно+13°C53 %628 мм0.4 м/с2 %
    09:00Ясно и безоблачно+17°C34 %631 мм0.9 м/с2 %
    12:00Небольшая облачность+26°C16 %633 мм1.7 м/с2 %
    15:00Практически безоблачно+29°C12 %632 мм4.1 м/с2 %
    18:00Ясно и безоблачно+25°C26 %631 мм3.9 м/с2 %
    21:00Практически безоблачно+17°C55 %630 мм1.2 м/с2 %
  • 07марта
    Четверг
    +9°
    +29°
    Практически безоблачно
    ВремяПогодаТемператураВлажностьДавлениеВетер, м/сВероятность осадков
    00:00Облачно с прояснениями+15°C69 %630 мм0.8 м/с2 %
    03:00Ясно и безоблачно+13°C73 %628 мм1.0 м/с2 %
    06:00Практически безоблачно+12°C66 %628 мм0.4 м/с2 %
    09:00Ясно и безоблачно+16°C46 %631 мм0.6 м/с2 %
    12:00Небольшая облачность+25°C17 %633 мм1.7 м/с2 %
    15:00Практически безоблачно+29°C14 %632 мм4.5 м/с2 %
    18:00Небольшая облачность+25°C25 %631 мм4.3 м/с2 %
    21:00Облачно с прояснениями+17°C66 %630 мм1.7 м/с2 %
Мы используем cookies
Соглашаюсь